sensor_id;sensor_type;location;lat;lon;timestamp;temperature;humidity
32877;DHT22;19226;51.600;8.034;2023-04-01T00:02:09;10.40;99.90
32877;DHT22;19226;51.600;8.034;2023-04-01T00:04:54;10.40;99.90
32877;DHT22;19226;51.600;8.034;2023-04-01T00:07:40;10.40;99.90
32877;DHT22;19226;51.600;8.034;2023-04-01T00:10:24;10.40;99.90
32877;DHT22;19226;51.600;8.034;2023-04-01T00:13:09;10.40;99.90
32877;DHT22;19226;51.600;8.034;2023-04-01T00:15:55;10.40;99.90
32877;DHT22;19226;51.600;8.034;2023-04-01T00:18:39;10.40;99.90
32877;DHT22;19226;51.600;8.034;2023-04-01T00:21:24;10.40;99.90
32877;DHT22;19226;51.600;8.034;2023-04-01T00:24:08;10.40;99.90
32877;DHT22;19226;51.600;8.034;2023-04-01T00:26:54;10.40;99.90
32877;DHT22;19226;51.600;8.034;2023-04-01T00:29:45;10.40;99.90
32877;DHT22;19226;51.600;8.034;2023-04-01T00:32:30;10.40;99.90
32877;DHT22;19226;51.600;8.034;2023-04-01T00:35:15;10.40;99.90
32877;DHT22;19226;51.600;8.034;2023-04-01T00:38:01;10.40;99.90
32877;DHT22;19226;51.600;8.034;2023-04-01T00:40:46;10.30;99.90
32877;DHT22;19226;51.600;8.034;2023-04-01T00:43:31;10.40;99.90
32877;DHT22;19226;51.600;8.034;2023-04-01T00:46:15;10.40;99.90
32877;DHT22;19226;51.600;8.034;2023-04-01T00:49:00;10.30;99.90
32877;DHT22;19226;51.600;8.034;2023-04-01T00:51:48;10.30;99.90
32877;DHT22;19226;51.600;8.034;2023-04-01T00:54:34;10.30;99.90
32877;DHT22;19226;51.600;8.034;2023-04-01T00:57:28;10.30;99.90
32877;DHT22;19226;51.600;8.034;2023-04-01T01:00:14;10.30;99.90
32877;DHT22;19226;51.600;8.034;2023-04-01T01:03:00;10.30;99.90
32877;DHT22;19226;51.600;8.034;2023-04-01T01:09:06;10.30;99.90
32877;DHT22;19226;51.600;8.034;2023-04-01T01:17:55;10.30;99.90
32877;DHT22;19226;51.600;8.034;2023-04-01T01:27:11;10.30;99.90
32877;DHT22;19226;51.600;8.034;2023-04-01T01:33:22;10.20;99.90
32877;DHT22;19226;51.600;8.034;2023-04-01T01:36:13;10.20;99.90
32877;DHT22;19226;51.600;8.034;2023-04-01T01:38:59;10.20;99.90
32877;DHT22;19226;51.600;8.034;2023-04-01T01:41:45;10.20;99.90
32877;DHT22;19226;51.600;8.034;2023-04-01T01:44:35;10.20;99.90
32877;DHT22;19226;51.600;8.034;2023-04-01T01:47:22;10.20;99.90
32877;DHT22;19226;51.600;8.034;2023-04-01T01:50:08;10.20;99.90
32877;DHT22;19226;51.600;8.034;2023-04-01T01:53:02;10.20;99.90
32877;DHT22;19226;51.600;8.034;2023-04-01T01:55:47;10.20;99.90
32877;DHT22;19226;51.600;8.034;2023-04-01T01:58:35;10.20;99.90
32877;DHT22;19226;51.600;8.034;2023-04-01T02:01:29;10.20;99.90
32877;DHT22;19226;51.600;8.034;2023-04-01T02:04:22;10.20;99.90
32877;DHT22;19226;51.600;8.034;2023-04-01T02:07:12;10.20;99.90
32877;DHT22;19226;51.600;8.034;2023-04-01T02:09:59;10.20;99.90
32877;DHT22;19226;51.600;8.034;2023-04-01T02:12:46;10.20;99.90
32877;DHT22;19226;51.600;8.034;2023-04-01T02:15:33;10.20;99.90
32877;DHT22;19226;51.600;8.034;2023-04-01T02:18:22;10.20;99.90
32877;DHT22;19226;51.600;8.034;2023-04-01T02:21:08;10.20;99.90
32877;DHT22;19226;51.600;8.034;2023-04-01T02:23:54;10.20;99.90
32877;DHT22;19226;51.600;8.034;2023-04-01T02:26:41;10.20;99.90
32877;DHT22;19226;51.600;8.034;2023-04-01T02:29:26;10.20;99.90
32877;DHT22;19226;51.600;8.034;2023-04-01T02:32:13;10.20;99.90
32877;DHT22;19226;51.600;8.034;2023-04-01T02:34:58;10.20;99.90
32877;DHT22;19226;51.600;8.034;2023-04-01T02:37:45;10.30;99.90
32877;DHT22;19226;51.600;8.034;2023-04-01T02:40:44;10.20;99.90
32877;DHT22;19226;51.600;8.034;2023-04-01T02:43:29;10.20;99.90
32877;DHT22;19226;51.600;8.034;2023-04-01T02:46:14;10.20;99.90
32877;DHT22;19226;51.600;8.034;2023-04-01T02:48:58;10.20;99.90
32877;DHT22;19226;51.600;8.034;2023-04-01T02:51:43;10.20;99.90
32877;DHT22;19226;51.600;8.034;2023-04-01T02:54:28;10.20;99.90
32877;DHT22;19226;51.600;8.034;2023-04-01T02:57:12;10.20;99.90
32877;DHT22;19226;51.600;8.034;2023-04-01T02:59:57;10.20;99.90
32877;DHT22;19226;51.600;8.034;2023-04-01T03:02:41;10.20;99.90
32877;DHT22;19226;51.600;8.034;2023-04-01T03:05:26;10.20;99.90
32877;DHT22;19226;51.600;8.034;2023-04-01T03:08:11;10.20;99.90
32877;DHT22;19226;51.600;8.034;2023-04-01T03:10:56;10.20;99.90
32877;DHT22;19226;51.600;8.034;2023-04-01T03:13:40;10.10;99.90
32877;DHT22;19226;51.600;8.034;2023-04-01T03:16:25;10.10;99.90
32877;DHT22;19226;51.600;8.034;2023-04-01T03:19:09;10.10;99.90
32877;DHT22;19226;51.600;8.034;2023-04-01T03:21:54;10.10;99.90
32877;DHT22;19226;51.600;8.034;2023-04-01T03:24:39;10.10;99.90
32877;DHT22;19226;51.600;8.034;2023-04-01T03:27:24;10.10;99.90
32877;DHT22;19226;51.600;8.034;2023-04-01T03:30:09;10.20;99.90
32877;DHT22;19226;51.600;8.034;2023-04-01T03:33:02;10.20;99.90
32877;DHT22;19226;51.600;8.034;2023-04-01T03:35:49;10.10;99.90
32877;DHT22;19226;51.600;8.034;2023-04-01T03:38:37;10.10;99.90
32877;DHT22;19226;51.600;8.034;2023-04-01T03:41:21;10.10;99.90
32877;DHT22;19226;51.600;8.034;2023-04-01T03:44:06;10.10;99.90
32877;DHT22;19226;51.600;8.034;2023-04-01T03:46:51;10.10;99.90
32877;DHT22;19226;51.600;8.034;2023-04-01T03:49:35;10.10;99.90
32877;DHT22;19226;51.600;8.034;2023-04-01T03:52:20;10.10;99.90
32877;DHT22;19226;51.600;8.034;2023-04-01T03:55:05;10.10;99.90
32877;DHT22;19226;51.600;8.034;2023-04-01T03:57:50;10.10;99.90
32877;DHT22;19226;51.600;8.034;2023-04-01T04:00:36;10.10;99.90
32877;DHT22;19226;51.600;8.034;2023-04-01T04:03:21;10.00;99.90
32877;DHT22;19226;51.600;8.034;2023-04-01T04:06:11;10.00;99.90
32877;DHT22;19226;51.600;8.034;2023-04-01T04:08:56;10.10;99.90
32877;DHT22;19226;51.600;8.034;2023-04-01T04:11:40;10.00;99.90
32877;DHT22;19226;51.600;8.034;2023-04-01T04:14:25;10.10;99.90
32877;DHT22;19226;51.600;8.034;2023-04-01T04:17:11;10.00;99.90
32877;DHT22;19226;51.600;8.034;2023-04-01T04:20:00;10.00;99.90
32877;DHT22;19226;51.600;8.034;2023-04-01T04:22:45;10.00;99.90
32877;DHT22;19226;51.600;8.034;2023-04-01T04:25:30;10.10;99.90
32877;DHT22;19226;51.600;8.034;2023-04-01T04:28:14;10.00;99.90
32877;DHT22;19226;51.600;8.034;2023-04-01T04:30:59;10.00;99.90
32877;DHT22;19226;51.600;8.034;2023-04-01T04:33:44;10.00;99.90
32877;DHT22;19226;51.600;8.034;2023-04-01T04:36:28;10.00;99.90
32877;DHT22;19226;51.600;8.034;2023-04-01T04:39:13;10.00;99.90
32877;DHT22;19226;51.600;8.034;2023-04-01T04:42:00;10.00;99.90
32877;DHT22;19226;51.600;8.034;2023-04-01T04:44:44;10.00;99.90
32877;DHT22;19226;51.600;8.034;2023-04-01T04:47:29;10.00;99.90
32877;DHT22;19226;51.600;8.034;2023-04-01T04:50:13;10.00;99.90
32877;DHT22;19226;51.600;8.034;2023-04-01T04:52:59;10.00;99.90
32877;DHT22;19226;51.600;8.034;2023-04-01T04:55:48;9.90;99.90
32877;DHT22;19226;51.600;8.034;2023-04-01T04:58:52;9.90;99.90
32877;DHT22;19226;51.600;8.034;2023-04-01T05:01:41;9.90;99.90
32877;DHT22;19226;51.600;8.034;2023-04-01T05:04:26;9.80;99.90
32877;DHT22;19226;51.600;8.034;2023-04-01T05:07:10;9.80;99.90
32877;DHT22;19226;51.600;8.034;2023-04-01T05:09:55;9.80;99.90
32877;DHT22;19226;51.600;8.034;2023-04-01T05:12:39;9.80;99.90
32877;DHT22;19226;51.600;8.034;2023-04-01T05:15:26;9.80;99.90
32877;DHT22;19226;51.600;8.034;2023-04-01T05:18:13;9.80;99.90
32877;DHT22;19226;51.600;8.034;2023-04-01T05:20:57;9.80;99.90
32877;DHT22;19226;51.600;8.034;2023-04-01T05:23:42;9.80;99.90
32877;DHT22;19226;51.600;8.034;2023-04-01T05:26:27;9.80;99.90
32877;DHT22;19226;51.600;8.034;2023-04-01T05:29:11;9.80;99.90
32877;DHT22;19226;51.600;8.034;2023-04-01T05:31:57;9.80;99.90
32877;DHT22;19226;51.600;8.034;2023-04-01T05:34:42;9.80;99.90
32877;DHT22;19226;51.600;8.034;2023-04-01T05:37:26;9.80;99.90
32877;DHT22;19226;51.600;8.034;2023-04-01T05:40:12;9.80;99.90
32877;DHT22;19226;51.600;8.034;2023-04-01T05:42:56;9.90;99.90
32877;DHT22;19226;51.600;8.034;2023-04-01T05:45:41;9.90;99.90
32877;DHT22;19226;51.600;8.034;2023-04-01T05:48:48;9.90;99.90
32877;DHT22;19226;51.600;8.034;2023-04-01T05:51:32;9.90;99.90
32877;DHT22;19226;51.600;8.034;2023-04-01T05:54:17;9.90;99.90
32877;DHT22;19226;51.600;8.034;2023-04-01T05:57:03;9.90;99.90
32877;DHT22;19226;51.600;8.034;2023-04-01T05:59:47;10.00;99.90
32877;DHT22;19226;51.600;8.034;2023-04-01T06:02:32;10.00;99.90
32877;DHT22;19226;51.600;8.034;2023-04-01T06:05:23;10.00;99.90
32877;DHT22;19226;51.600;8.034;2023-04-01T06:08:14;10.00;99.90
32877;DHT22;19226;51.600;8.034;2023-04-01T06:11:12;10.00;99.90
32877;DHT22;19226;51.600;8.034;2023-04-01T06:14:14;10.10;99.90
32877;DHT22;19226;51.600;8.034;2023-04-01T06:17:32;10.00;99.90
32877;DHT22;19226;51.600;8.034;2023-04-01T06:29:34;10.10;99.90
32877;DHT22;19226;51.600;8.034;2023-04-01T06:32:42;10.20;99.90
32877;DHT22;19226;51.600;8.034;2023-04-01T06:41:48;10.20;99.90
32877;DHT22;19226;51.600;8.034;2023-04-01T06:54:35;10.30;99.90
32877;DHT22;19226;51.600;8.034;2023-04-01T06:57:52;10.30;99.90
32877;DHT22;19226;51.600;8.034;2023-04-01T07:00:42;10.40;99.90
32877;DHT22;19226;51.600;8.034;2023-04-01T07:03:38;10.40;99.90
32877;DHT22;19226;51.600;8.034;2023-04-01T07:06:36;10.40;99.90
32877;DHT22;19226;51.600;8.034;2023-04-01T07:09:31;10.40;99.90
32877;DHT22;19226;51.600;8.034;2023-04-01T07:12:44;10.50;99.90
32877;DHT22;19226;51.600;8.034;2023-04-01T07:15:49;10.50;99.90
32877;DHT22;19226;51.600;8.034;2023-04-01T07:18:51;10.60;99.90
32877;DHT22;19226;51.600;8.034;2023-04-01T07:21:49;10.60;99.90
32877;DHT22;19226;51.600;8.034;2023-04-01T07:24:44;10.70;99.90
32877;DHT22;19226;51.600;8.034;2023-04-01T07:27:29;10.70;99.90
32877;DHT22;19226;51.600;8.034;2023-04-01T07:33:33;10.80;99.90
32877;DHT22;19226;51.600;8.034;2023-04-01T07:36:42;10.90;99.90
32877;DHT22;19226;51.600;8.034;2023-04-01T07:43:05;11.00;99.90
32877;DHT22;19226;51.600;8.034;2023-04-01T07:46:28;11.00;99.90
32877;DHT22;19226;51.600;8.034;2023-04-01T07:55:24;11.20;99.90
32877;DHT22;19226;51.600;8.034;2023-04-01T08:01:49;11.20;99.90
32877;DHT22;19226;51.600;8.034;2023-04-01T08:04:51;11.20;99.90
32877;DHT22;19226;51.600;8.034;2023-04-01T08:14:24;11.30;99.90
32877;DHT22;19226;51.600;8.034;2023-04-01T08:17:51;11.40;99.90
32877;DHT22;19226;51.600;8.034;2023-04-01T08:20:41;11.40;99.90
32877;DHT22;19226;51.600;8.034;2023-04-01T08:23:38;11.40;99.90
32877;DHT22;19226;51.600;8.034;2023-04-01T08:26:35;11.40;99.90
32877;DHT22;19226;51.600;8.034;2023-04-01T08:29:24;11.40;99.90
32877;DHT22;19226;51.600;8.034;2023-04-01T08:32:14;11.40;99.90
32877;DHT22;19226;51.600;8.034;2023-04-01T08:38:21;11.40;99.90
32877;DHT22;19226;51.600;8.034;2023-04-01T08:41:19;11.40;99.90
32877;DHT22;19226;51.600;8.034;2023-04-01T08:45:15;11.40;99.90
32877;DHT22;19226;51.600;8.034;2023-04-01T08:54:45;11.40;99.90
32877;DHT22;19226;51.600;8.034;2023-04-01T08:57:53;11.40;99.90
32877;DHT22;19226;51.600;8.034;2023-04-01T09:13:55;11.50;99.90
32877;DHT22;19226;51.600;8.034;2023-04-01T09:32:26;11.50;99.90
32877;DHT22;19226;51.600;8.034;2023-04-01T09:38:47;11.50;99.90
32877;DHT22;19226;51.600;8.034;2023-04-01T09:48:46;11.60;99.90
32877;DHT22;19226;51.600;8.034;2023-04-01T09:57:35;11.70;99.90
32877;DHT22;19226;51.600;8.034;2023-04-01T10:10:28;11.70;99.90
32877;DHT22;19226;51.600;8.034;2023-04-01T10:20:02;11.70;99.90
32877;DHT22;19226;51.600;8.034;2023-04-01T10:26:06;11.80;99.90
32877;DHT22;19226;51.600;8.034;2023-04-01T10:49:28;11.60;99.90
32877;DHT22;19226;51.600;8.034;2023-04-01T10:52:51;11.60;99.90
32877;DHT22;19226;51.600;8.034;2023-04-01T11:15:35;11.70;99.90
32877;DHT22;19226;51.600;8.034;2023-04-01T11:34:04;11.80;99.90
32877;DHT22;19226;51.600;8.034;2023-04-01T11:37:07;11.80;99.90
32877;DHT22;19226;51.600;8.034;2023-04-01T11:40:22;11.80;99.90
32877;DHT22;19226;51.600;8.034;2023-04-01T11:44:01;11.80;99.90
32877;DHT22;19226;51.600;8.034;2023-04-01T11:47:22;11.90;99.90
32877;DHT22;19226;51.600;8.034;2023-04-01T11:59:29;12.10;99.90
32877;DHT22;19226;51.600;8.034;2023-04-01T12:05:38;12.10;99.90
32877;DHT22;19226;51.600;8.034;2023-04-01T12:08:44;12.10;99.90
32877;DHT22;19226;51.600;8.034;2023-04-01T12:14:41;12.20;99.90
32877;DHT22;19226;51.600;8.034;2023-04-01T12:20:49;12.20;99.90
32877;DHT22;19226;51.600;8.034;2023-04-01T12:26:57;12.20;99.90
32877;DHT22;19226;51.600;8.034;2023-04-01T12:45:31;12.20;99.90
32877;DHT22;19226;51.600;8.034;2023-04-01T13:00:30;12.00;99.90
32877;DHT22;19226;51.600;8.034;2023-04-01T13:06:35;12.10;99.90
32877;DHT22;19226;51.600;8.034;2023-04-01T13:09:35;12.10;99.90
32877;DHT22;19226;51.600;8.034;2023-04-01T13:15:39;12.10;99.90
32877;DHT22;19226;51.600;8.034;2023-04-01T13:21:21;12.00;99.90
32877;DHT22;19226;51.600;8.034;2023-04-01T13:27:17;12.10;99.90
32877;DHT22;19226;51.600;8.034;2023-04-01T13:39:35;12.30;99.90
32877;DHT22;19226;51.600;8.034;2023-04-01T13:42:33;12.30;99.90
32877;DHT22;19226;51.600;8.034;2023-04-01T14:01:39;12.30;99.90
32877;DHT22;19226;51.600;8.034;2023-04-01T14:04:53;12.40;99.90
32877;DHT22;19226;51.600;8.034;2023-04-01T14:11:11;12.40;99.90
32877;DHT22;19226;51.600;8.034;2023-04-01T14:17:09;12.20;99.90
32877;DHT22;19226;51.600;8.034;2023-04-01T14:20:30;12.20;99.90
32877;DHT22;19226;51.600;8.034;2023-04-01T14:26:43;12.30;99.90
32877;DHT22;19226;51.600;8.034;2023-04-01T14:33:11;12.30;99.90
32877;DHT22;19226;51.600;8.034;2023-04-01T14:42:17;12.30;99.90
32877;DHT22;19226;51.600;8.034;2023-04-01T14:48:37;12.30;99.90
32877;DHT22;19226;51.600;8.034;2023-04-01T14:51:36;12.20;99.90
32877;DHT22;19226;51.600;8.034;2023-04-01T14:54:35;12.20;99.90
32877;DHT22;19226;51.600;8.034;2023-04-01T14:57:27;12.10;99.90
32877;DHT22;19226;51.600;8.034;2023-04-01T15:00:17;12.10;99.90
32877;DHT22;19226;51.600;8.034;2023-04-01T15:03:04;12.00;99.90
32877;DHT22;19226;51.600;8.034;2023-04-01T15:21:11;11.90;99.90
32877;DHT22;19226;51.600;8.034;2023-04-01T15:24:23;11.90;99.90
32877;DHT22;19226;51.600;8.034;2023-04-01T15:27:30;11.90;99.90
32877;DHT22;19226;51.600;8.034;2023-04-01T15:39:48;12.00;99.90
32877;DHT22;19226;51.600;8.034;2023-04-01T15:55:21;12.00;99.90
32877;DHT22;19226;51.600;8.034;2023-04-01T16:05:05;11.90;99.90
32877;DHT22;19226;51.600;8.034;2023-04-01T16:24:05;11.70;99.90
32877;DHT22;19226;51.600;8.034;2023-04-01T16:27:00;11.70;99.90
32877;DHT22;19226;51.600;8.034;2023-04-01T16:30:09;11.70;99.90
32877;DHT22;19226;51.600;8.034;2023-04-01T16:33:38;11.70;99.90
32877;DHT22;19226;51.600;8.034;2023-04-01T16:36:55;11.70;99.90
32877;DHT22;19226;51.600;8.034;2023-04-01T16:43:26;11.60;99.90
32877;DHT22;19226;51.600;8.034;2023-04-01T16:46:28;11.60;99.90
32877;DHT22;19226;51.600;8.034;2023-04-01T16:49:25;11.60;99.90
32877;DHT22;19226;51.600;8.034;2023-04-01T16:52:15;11.50;99.90
32877;DHT22;19226;51.600;8.034;2023-04-01T16:55:15;11.60;99.90
32877;DHT22;19226;51.600;8.034;2023-04-01T16:58:03;11.60;99.90
32877;DHT22;19226;51.600;8.034;2023-04-01T17:00:52;11.50;99.90
32877;DHT22;19226;51.600;8.034;2023-04-01T17:09:45;11.50;99.90
32877;DHT22;19226;51.600;8.034;2023-04-01T17:16:14;11.50;99.90
32877;DHT22;19226;51.600;8.034;2023-04-01T17:22:44;11.50;99.90
32877;DHT22;19226;51.600;8.034;2023-04-01T17:35:28;11.40;99.90
32877;DHT22;19226;51.600;8.034;2023-04-01T17:38:06;11.40;99.90
32877;DHT22;19226;51.600;8.034;2023-04-01T17:41:03;11.40;99.90
32877;DHT22;19226;51.600;8.034;2023-04-01T17:44:38;11.40;99.90
32877;DHT22;19226;51.600;8.034;2023-04-01T17:50:23;11.40;99.90
32877;DHT22;19226;51.600;8.034;2023-04-01T17:59:43;11.50;99.90
32877;DHT22;19226;51.600;8.034;2023-04-01T18:08:49;11.40;99.90
32877;DHT22;19226;51.600;8.034;2023-04-01T18:11:56;11.40;99.90
32877;DHT22;19226;51.600;8.034;2023-04-01T18:14:50;11.40;99.90
32877;DHT22;19226;51.600;8.034;2023-04-01T18:17:51;11.40;99.90
32877;DHT22;19226;51.600;8.034;2023-04-01T18:23:50;11.50;99.90
32877;DHT22;19226;51.600;8.034;2023-04-01T18:26:38;11.50;99.90
32877;DHT22;19226;51.600;8.034;2023-04-01T18:30:07;11.50;99.90
32877;DHT22;19226;51.600;8.034;2023-04-01T18:33:25;11.50;99.90
32877;DHT22;19226;51.600;8.034;2023-04-01T18:36:18;11.40;99.90
32877;DHT22;19226;51.600;8.034;2023-04-01T18:39:23;11.50;99.90
32877;DHT22;19226;51.600;8.034;2023-04-01T18:42:38;11.50;99.90
32877;DHT22;19226;51.600;8.034;2023-04-01T18:45:33;11.40;99.90
32877;DHT22;19226;51.600;8.034;2023-04-01T18:54:43;11.40;99.90
32877;DHT22;19226;51.600;8.034;2023-04-01T18:57:51;11.40;99.90
32877;DHT22;19226;51.600;8.034;2023-04-01T19:09:47;11.40;99.90
32877;DHT22;19226;51.600;8.034;2023-04-01T19:12:43;11.40;99.90
32877;DHT22;19226;51.600;8.034;2023-04-01T19:18:46;11.40;99.90
32877;DHT22;19226;51.600;8.034;2023-04-01T19:21:44;11.40;99.90
32877;DHT22;19226;51.600;8.034;2023-04-01T19:25:23;11.40;99.90
32877;DHT22;19226;51.600;8.034;2023-04-01T19:27:58;11.40;99.90
32877;DHT22;19226;51.600;8.034;2023-04-01T19:30:55;11.40;99.90
32877;DHT22;19226;51.600;8.034;2023-04-01T19:40:32;11.40;99.90
32877;DHT22;19226;51.600;8.034;2023-04-01T19:47:05;11.40;99.90
32877;DHT22;19226;51.600;8.034;2023-04-01T19:50:31;11.40;99.90
32877;DHT22;19226;51.600;8.034;2023-04-01T19:56:44;11.30;99.90
32877;DHT22;19226;51.600;8.034;2023-04-01T19:59:37;11.30;99.90
32877;DHT22;19226;51.600;8.034;2023-04-01T20:08:50;11.30;99.90
32877;DHT22;19226;51.600;8.034;2023-04-01T20:14:52;11.10;99.90
32877;DHT22;19226;51.600;8.034;2023-04-01T20:20:29;10.90;99.90
32877;DHT22;19226;51.600;8.034;2023-04-01T20:26:21;10.70;99.90
32877;DHT22;19226;51.600;8.034;2023-04-01T20:32:24;10.40;99.90
32877;DHT22;19226;51.600;8.034;2023-04-01T20:39:00;10.40;99.90
32877;DHT22;19226;51.600;8.034;2023-04-01T20:45:01;10.20;99.90
32877;DHT22;19226;51.600;8.034;2023-04-01T20:47:59;10.10;99.90
32877;DHT22;19226;51.600;8.034;2023-04-01T20:50:56;10.10;99.90
32877;DHT22;19226;51.600;8.034;2023-04-01T20:57:11;9.90;99.90
32877;DHT22;19226;51.600;8.034;2023-04-01T21:00:02;9.80;99.90
32877;DHT22;19226;51.600;8.034;2023-04-01T21:06:16;9.70;99.90
32877;DHT22;19226;51.600;8.034;2023-04-01T21:09:16;9.60;99.90
32877;DHT22;19226;51.600;8.034;2023-04-01T21:24:33;9.40;99.90
32877;DHT22;19226;51.600;8.034;2023-04-01T21:30:48;9.30;99.90
32877;DHT22;19226;51.600;8.034;2023-04-01T21:45:57;9.10;99.90
32877;DHT22;19226;51.600;8.034;2023-04-01T21:49:04;9.10;99.90
32877;DHT22;19226;51.600;8.034;2023-04-01T21:55:53;9.00;99.90
32877;DHT22;19226;51.600;8.034;2023-04-01T21:59:20;8.90;99.90
32877;DHT22;19226;51.600;8.034;2023-04-01T22:05:21;8.80;99.90
32877;DHT22;19226;51.600;8.034;2023-04-01T22:08:24;8.70;99.90
32877;DHT22;19226;51.600;8.034;2023-04-01T22:14:59;8.60;99.90
32877;DHT22;19226;51.600;8.034;2023-04-01T22:17:52;8.60;99.90
32877;DHT22;19226;51.600;8.034;2023-04-01T22:20:58;8.60;99.90
32877;DHT22;19226;51.600;8.034;2023-04-01T22:24:01;8.50;99.90
32877;DHT22;19226;51.600;8.034;2023-04-01T22:35:47;8.40;99.90
32877;DHT22;19226;51.600;8.034;2023-04-01T22:41:38;8.30;99.90
32877;DHT22;19226;51.600;8.034;2023-04-01T22:44:46;8.20;99.90
32877;DHT22;19226;51.600;8.034;2023-04-01T22:48:01;8.20;99.90
32877;DHT22;19226;51.600;8.034;2023-04-01T22:57:28;8.10;99.90
32877;DHT22;19226;51.600;8.034;2023-04-01T23:00:41;8.10;99.90
32877;DHT22;19226;51.600;8.034;2023-04-01T23:03:31;8.00;99.90
32877;DHT22;19226;51.600;8.034;2023-04-01T23:06:25;8.00;99.90
32877;DHT22;19226;51.600;8.034;2023-04-01T23:09:15;7.90;99.90
32877;DHT22;19226;51.600;8.034;2023-04-01T23:12:12;7.90;99.90
32877;DHT22;19226;51.600;8.034;2023-04-01T23:15:02;7.90;99.90
32877;DHT22;19226;51.600;8.034;2023-04-01T23:24:05;7.80;99.90
32877;DHT22;19226;51.600;8.034;2023-04-01T23:27:03;7.70;99.90
32877;DHT22;19226;51.600;8.034;2023-04-01T23:29:49;7.70;99.90
32877;DHT22;19226;51.600;8.034;2023-04-01T23:32:34;7.70;99.90
32877;DHT22;19226;51.600;8.034;2023-04-01T23:35:18;7.70;99.90
32877;DHT22;19226;51.600;8.034;2023-04-01T23:38:03;7.70;99.90
32877;DHT22;19226;51.600;8.034;2023-04-01T23:40:49;7.60;99.90
32877;DHT22;19226;51.600;8.034;2023-04-01T23:43:40;7.60;99.90
32877;DHT22;19226;51.600;8.034;2023-04-01T23:46:26;7.60;99.90
32877;DHT22;19226;51.600;8.034;2023-04-01T23:49:19;7.60;99.90
32877;DHT22;19226;51.600;8.034;2023-04-01T23:52:28;7.50;99.90
32877;DHT22;19226;51.600;8.034;2023-04-01T23:55:19;7.40;99.90
